Terminal Aerodrome Forecast
Issued by NWS

Current Version | Previous Version | Graphics & Text | Print | Product List | Glossary On
Versions: 1 2 3 4 5 6 7 8 9 10 11 12 13 14 15 16 17 18 19 20 21 22 23 24 25 26 27 28 29 30 31 32 33 34 35 36 37 38 39 40 41 42 43 44
000
FTUS41 KRNK 231412 AAA
TAFLWB
TAF AMD
KLWB 231412Z 2314/2412 03004KT P6SM BKN020
      TEMPO 2314/2318 SCT020 BKN060
     FM240200 00000KT 4SM -RA BR OVC007 WS014/20031KT
     FM240600 12003KT 2SM RA BR OVC003 WS019/20040KT=

USA.gov is the U.S. government's official web portal to all federal, state and local government web resources and services.